createdAt,value
2023-03-31T00:00:24.093Z,96534.56
2023-03-31T00:05:18.334Z,96525.88
2023-03-31T00:10:18.338Z,96531.94
2023-03-31T00:15:12.718Z,96518.38
2023-03-31T00:20:12.597Z,96513.38
2023-03-31T00:25:07.400Z,96487.69
2023-03-31T00:30:02.253Z,96496.00
2023-03-31T00:34:55.543Z,96473.25
2023-03-31T00:39:48.933Z,96479.19
2023-03-31T00:45:28.354Z,96466.34
2023-03-31T00:50:27.088Z,96447.25
2023-03-31T00:55:27.714Z,96442.97
2023-03-31T01:00:23.238Z,96442.72
2023-03-31T01:05:19.958Z,96456.41
2023-03-31T01:10:14.719Z,96472.69
2023-03-31T01:15:10.389Z,96501.66
2023-03-31T01:20:15.635Z,96478.16
2023-03-31T01:26:01.762Z,96458.53
2023-03-31T01:31:43.848Z,96455.28
2023-03-31T01:37:25.836Z,96441.06
2023-03-31T01:42:33.195Z,96449.31
2023-03-31T01:47:40.436Z,96446.25
2023-03-31T01:52:44.031Z,96432.19
2023-03-31T01:57:47.247Z,96403.50
2023-03-31T02:02:52.604Z,96384.31
2023-03-31T02:07:55.914Z,96365.25
2023-03-31T02:12:52.591Z,96360.00
2023-03-31T02:17:54.785Z,96352.16
2023-03-31T02:22:54.607Z,96341.66
2023-03-31T02:27:55.146Z,96337.25
2023-03-31T02:32:48.755Z,96330.50
2023-03-31T02:37:43.585Z,96350.72
2023-03-31T02:42:37.718Z,96289.78
2023-03-31T02:47:32.888Z,96286.47
2023-03-31T02:52:52.222Z,96308.50
2023-03-31T02:58:39.949Z,96270.75
2023-03-31T03:03:47.477Z,96237.38
2023-03-31T03:09:02.899Z,96215.97
2023-03-31T03:14:10.426Z,96200.09
2023-03-31T03:19:08.222Z,96183.31
2023-03-31T03:24:01.823Z,96197.63
2023-03-31T03:28:56.668Z,96160.69
2023-03-31T03:33:50.069Z,96161.78
2023-03-31T03:38:44.754Z,96148.69
2023-03-31T03:43:38.591Z,96136.69
2023-03-31T03:48:31.994Z,96116.69
2023-03-31T03:53:25.871Z,96113.75
2023-03-31T03:58:21.045Z,96082.69
2023-03-31T04:03:15.258Z,96057.09
2023-03-31T04:08:08.922Z,96049.53
2023-03-31T04:13:02.649Z,96037.56
2023-03-31T04:17:58.464Z,96027.91
2023-03-31T04:22:51.886Z,96029.69
2023-03-31T04:27:46.988Z,96025.25
2023-03-31T04:32:40.387Z,96011.88
2023-03-31T04:37:35.484Z,96007.34
2023-03-31T04:42:28.845Z,96004.00
2023-03-31T04:47:22.228Z,95990.34
2023-03-31T04:52:15.581Z,95955.44
2023-03-31T04:57:10.605Z,95915.06
2023-03-31T05:02:04.236Z,95907.19
2023-03-31T05:06:57.984Z,95911.19
2023-03-31T05:11:51.741Z,95902.41
2023-03-31T05:16:46.576Z,95909.69
2023-03-31T05:21:39.905Z,95887.38
2023-03-31T05:26:33.286Z,95888.19
2023-03-31T05:31:28.465Z,95898.13
2023-03-31T05:36:23.750Z,95899.06
2023-03-31T05:41:17.272Z,95932.00
2023-03-31T05:46:11.270Z,95941.22
2023-03-31T05:51:05.137Z,95934.47
2023-03-31T05:56:01.969Z,95939.84
2023-03-31T06:01:06.107Z,95902.09
2023-03-31T06:05:59.870Z,95896.69
2023-03-31T06:10:54.340Z,95879.91
2023-03-31T06:15:57.195Z,95842.31
2023-03-31T06:20:50.528Z,95870.25
2023-03-31T06:25:50.449Z,95847.66
2023-03-31T06:30:44.913Z,95845.19
2023-03-31T06:35:41.468Z,95843.13
2023-03-31T06:40:35.305Z,95844.50
2023-03-31T06:45:29.047Z,95874.94
2023-03-31T06:50:22.401Z,95873.72
2023-03-31T06:55:17.382Z,95939.03
2023-03-31T07:00:12.677Z,95899.19
2023-03-31T07:05:06.836Z,95849.59
2023-03-31T07:10:00.355Z,95842.53
2023-03-31T07:20:37.729Z,95840.31
2023-03-31T07:25:31.029Z,95899.84
2023-03-31T07:30:25.997Z,95945.88
2023-03-31T07:35:23.275Z,96030.28
2023-03-31T07:40:20.363Z,96002.91
2023-03-31T07:45:16.760Z,95948.28
2023-03-31T07:50:12.382Z,95956.28
2023-03-31T07:55:06.761Z,95961.38
2023-03-31T08:00:00.199Z,95943.19
2023-03-31T08:04:54.512Z,95938.16
2023-03-31T08:10:35.820Z,95931.03
2023-03-31T08:16:20.221Z,95935.94
2023-03-31T08:21:16.433Z,95962.97
2023-03-31T08:26:21.042Z,95986.16
2023-03-31T08:31:16.591Z,95982.06
2023-03-31T08:36:12.028Z,95995.66
2023-03-31T08:41:17.170Z,95982.97
2023-03-31T08:46:15.871Z,96006.44
2023-03-31T08:51:17.444Z,96017.38
2023-03-31T08:56:34.176Z,95989.75
2023-03-31T09:01:55.700Z,96003.44
2023-03-31T09:07:02.402Z,95990.22
2023-03-31T09:12:06.990Z,96001.28
2023-03-31T09:17:18.741Z,95999.22
2023-03-31T09:22:21.215Z,95977.25
2023-03-31T09:27:16.876Z,95980.84
2023-03-31T09:32:19.046Z,95992.28
2023-03-31T09:37:13.660Z,95981.41
2023-03-31T09:42:07.961Z,95994.31
2023-03-31T09:47:08.947Z,96010.81
2023-03-31T09:52:14.285Z,95970.16
2023-03-31T09:57:27.731Z,95913.19
2023-03-31T10:02:37.726Z,95929.56
2023-03-31T10:07:31.996Z,95864.66
2023-03-31T10:12:29.954Z,95909.94
2023-03-31T10:22:35.775Z,95897.56
2023-03-31T10:27:32.845Z,95857.47
2023-03-31T10:32:30.710Z,95826.22
2023-03-31T10:37:30.106Z,95844.56
2023-03-31T10:42:27.101Z,95818.06
2023-03-31T10:47:25.501Z,95786.09
2023-03-31T10:52:23.405Z,95810.34
2023-03-31T10:57:19.211Z,95838.06
2023-03-31T11:02:56.643Z,95838.97
2023-03-31T11:08:06.495Z,95850.03
2023-03-31T11:13:07.963Z,95856.28
2023-03-31T11:18:23.867Z,95887.34
2023-03-31T11:23:26.793Z,95813.88
2023-03-31T11:28:50.472Z,95832.28
2023-03-31T11:34:18.103Z,95860.72
2023-03-31T11:39:30.462Z,95884.09
2023-03-31T11:44:28.563Z,95853.47
2023-03-31T11:49:28.785Z,95836.31
2023-03-31T11:54:32.568Z,95810.75
2023-03-31T11:59:31.849Z,95780.38
2023-03-31T12:04:36.001Z,95773.78
2023-03-31T12:09:39.748Z,95756.66
2023-03-31T12:14:40.666Z,95763.25
2023-03-31T12:19:48.004Z,95760.75
2023-03-31T12:24:41.468Z,95761.72
2023-03-31T12:29:40.693Z,95757.44
2023-03-31T12:34:39.960Z,95767.84
2023-03-31T12:39:51.799Z,95774.59
2023-03-31T12:45:01.023Z,95880.66
2023-03-31T12:50:37.356Z,95929.66
2023-03-31T12:55:41.326Z,95926.63
2023-03-31T13:00:35.486Z,95924.09
2023-03-31T13:05:49.828Z,95888.09
2023-03-31T13:10:59.694Z,95869.69
2023-03-31T13:15:57.236Z,95866.66
2023-03-31T13:21:01.008Z,95859.25
2023-03-31T13:25:55.755Z,95825.81
2023-03-31T13:30:54.047Z,95813.59
2023-03-31T13:35:54.029Z,95809.94
2023-03-31T13:41:06.863Z,95819.44
2023-03-31T13:46:26.563Z,95824.13
2023-03-31T13:51:49.087Z,95822.63
2023-03-31T13:57:15.388Z,95828.19
2023-03-31T14:07:58.144Z,95813.31
2023-03-31T14:12:53.424Z,95828.78
2023-03-31T14:17:47.044Z,95839.69
2023-03-31T14:22:53.291Z,95812.69
2023-03-31T14:28:05.414Z,95790.53
2023-03-31T14:33:19.578Z,95785.88
2023-03-31T14:38:21.024Z,95781.09
2023-03-31T14:43:23.142Z,95780.38
2023-03-31T14:48:17.503Z,95757.19
2023-03-31T14:53:17.036Z,95732.88
2023-03-31T14:58:23.411Z,95707.00
2023-03-31T15:03:20.305Z,95711.69
2023-03-31T15:19:00.164Z,95793.44
2023-03-31T15:23:57.202Z,95885.16
2023-03-31T15:28:58.569Z,95954.59
2023-03-31T15:33:56.369Z,95922.25
2023-03-31T15:38:59.135Z,95891.00
2023-03-31T15:44:09.210Z,95829.50
2023-03-31T15:49:03.311Z,95841.72
2023-03-31T15:53:58.094Z,95829.63
2023-03-31T15:59:00.851Z,95811.84
2023-03-31T16:03:56.454Z,95804.53
2023-03-31T16:08:58.390Z,95817.91
2023-03-31T16:13:59.430Z,95829.06
2023-03-31T16:18:58.058Z,95837.19
2023-03-31T16:23:58.305Z,95846.03
2023-03-31T16:28:57.544Z,95832.53
2023-03-31T16:33:57.624Z,95842.72
2023-03-31T16:38:53.912Z,95848.50
2023-03-31T16:43:47.445Z,95819.03
2023-03-31T16:48:42.166Z,95820.94
2023-03-31T16:53:37.213Z,95854.97
2023-03-31T16:58:31.723Z,95888.06
2023-03-31T17:03:25.618Z,95876.06
2023-03-31T17:08:22.968Z,95884.88
2023-03-31T17:13:16.265Z,95888.75
2023-03-31T17:18:09.831Z,95906.38
2023-03-31T17:23:04.349Z,95904.44
2023-03-31T17:28:00.682Z,95909.84
2023-03-31T17:32:54.293Z,95909.16
2023-03-31T17:37:47.823Z,95891.63
2023-03-31T17:42:41.214Z,95894.94
2023-03-31T17:47:36.115Z,95881.69
2023-03-31T17:52:29.668Z,95890.69
2023-03-31T17:57:23.070Z,95887.09
2023-03-31T18:02:16.481Z,95895.63
2023-03-31T18:08:30.976Z,95896.38
2023-03-31T18:13:37.509Z,95883.50
2023-03-31T18:38:08.707Z,95904.38
2023-03-31T18:43:23.892Z,95917.56
2023-03-31T18:48:50.485Z,95923.38
2023-03-31T18:53:53.137Z,95938.91
2023-03-31T18:59:15.336Z,95959.22
2023-03-31T19:11:56.228Z,95931.28
2023-03-31T19:23:35.368Z,95936.97
2023-03-31T19:28:31.648Z,95920.03
2023-03-31T19:33:26.068Z,95929.78
2023-03-31T19:39:07.421Z,95966.19
2023-03-31T19:44:03.578Z,95971.03
2023-03-31T19:48:57.118Z,95974.09
2023-03-31T19:53:50.624Z,95980.66
2023-03-31T19:59:03.631Z,95991.44
2023-03-31T20:04:02.664Z,96002.84
2023-03-31T20:09:00.039Z,96015.78
2023-03-31T20:13:53.681Z,96015.31
2023-03-31T20:18:54.499Z,96004.78
2023-03-31T20:23:52.793Z,96013.59
2023-03-31T20:34:19.104Z,96021.69
2023-03-31T20:39:21.892Z,96019.88
2023-03-31T20:44:32.478Z,96019.72
2023-03-31T20:49:29.922Z,96010.97
2023-03-31T20:54:23.510Z,96019.72
2023-03-31T20:59:17.244Z,96015.31
2023-03-31T21:04:12.264Z,96013.16
2023-03-31T21:09:07.660Z,96013.84
2023-03-31T21:14:03.805Z,96010.72
2023-03-31T21:19:00.006Z,95993.31
2023-03-31T21:23:54.296Z,95987.09
2023-03-31T21:28:54.436Z,95981.03
2023-03-31T21:33:54.593Z,95979.78
2023-03-31T21:38:49.362Z,95979.06
2023-03-31T21:43:43.758Z,95980.66
2023-03-31T21:48:40.736Z,95992.84
2023-03-31T21:53:34.281Z,95977.75
2023-03-31T21:58:30.452Z,95977.47
2023-03-31T22:03:28.793Z,95983.28
2023-03-31T22:08:23.898Z,95987.38
2023-03-31T22:13:17.729Z,96007.09
2023-03-31T22:18:11.647Z,96001.13
2023-03-31T22:23:05.511Z,96003.66
2023-03-31T22:28:00.540Z,96000.59
2023-03-31T22:32:55.036Z,95988.22
2023-03-31T22:37:51.676Z,95986.19
2023-03-31T22:42:45.077Z,95986.13
2023-03-31T22:47:42.234Z,95999.34
2023-03-31T22:52:36.025Z,95985.88
2023-03-31T22:57:30.792Z,95996.28
2023-03-31T23:02:24.285Z,95998.69
2023-03-31T23:07:21.846Z,96008.00
2023-03-31T23:12:21.701Z,96009.28
2023-03-31T23:17:17.800Z,96000.94
2023-03-31T23:22:11.565Z,95970.75
2023-03-31T23:27:06.554Z,95987.47
2023-03-31T23:32:05.789Z,95980.69
2023-03-31T23:36:59.253Z,95973.31
2023-03-31T23:41:53.493Z,95978.28
2023-03-31T23:46:48.363Z,95990.91
2023-03-31T23:51:41.827Z,95993.31
2023-03-31T23:56:35.542Z,95980.91
